createdAt,value
2018-06-05T00:02:24.878Z,21.93
2018-06-05T00:04:55.723Z,23.30
2018-06-05T00:07:27.214Z,22.17
2018-06-05T00:10:00.488Z,22.77
2018-06-05T00:12:30.217Z,21.37
2018-06-05T00:14:59.604Z,21.17
2018-06-05T00:17:29.969Z,20.60
2018-06-05T00:19:59.880Z,19.63
2018-06-05T00:22:30.959Z,22.50
2018-06-05T00:25:02.757Z,21.57
2018-06-05T00:27:34.412Z,21.80
2018-06-05T00:30:04.961Z,19.87
2018-06-05T00:32:36.245Z,22.23
2018-06-05T00:35:12.785Z,19.30
2018-06-05T00:37:42.989Z,18.57
2018-06-05T00:40:13.880Z,19.37
2018-06-05T00:42:45.030Z,20.13
2018-06-05T00:45:17.587Z,20.33
2018-06-05T00:47:49.308Z,21.27
2018-06-05T00:50:19.755Z,23.27
2018-06-05T00:52:52.397Z,22.90
2018-06-05T00:55:24.537Z,21.03
2018-06-05T00:57:56.890Z,22.47
2018-06-05T01:00:26.922Z,22.07
2018-06-05T01:02:58.999Z,21.43
2018-06-05T01:05:31.418Z,23.77
2018-06-05T01:08:05.351Z,24.43
2018-06-05T01:10:37.352Z,23.27
2018-06-05T01:13:09.085Z,24.57
2018-06-05T01:15:41.863Z,27.00
2018-06-05T01:18:11.971Z,27.07
2018-06-05T01:20:42.967Z,24.37
2018-06-05T01:23:13.510Z,24.47
2018-06-05T01:25:43.830Z,23.50
2018-06-05T01:28:14.374Z,23.57
2018-06-05T01:30:45.597Z,21.73
2018-06-05T01:33:16.027Z,23.00
2018-06-05T01:35:46.476Z,23.83
2018-06-05T01:38:16.661Z,22.60
2018-06-05T01:40:47.414Z,26.80
2018-06-05T01:43:30.890Z,25.23
2018-06-05T01:46:02.324Z,32.63
2018-06-05T01:48:33.247Z,36.90
2018-06-05T01:51:03.630Z,33.47
2018-06-05T01:53:34.115Z,44.10
2018-06-05T01:56:04.406Z,45.77
2018-06-05T01:58:34.465Z,50.13
2018-06-05T02:01:07.006Z,53.77
2018-06-05T02:03:38.466Z,50.70
2018-06-05T02:06:10.423Z,53.17
2018-06-05T02:08:42.351Z,47.20
2018-06-05T02:11:12.678Z,62.13
2018-06-05T02:13:43.397Z,59.40
2018-06-05T02:16:15.302Z,63.87
2018-06-05T02:18:45.906Z,57.23
2018-06-05T02:21:17.253Z,54.73
2018-06-05T02:23:47.613Z,59.47
2018-06-05T02:26:17.996Z,90.27
2018-06-05T02:28:48.593Z,72.37
2018-06-05T02:31:20.015Z,76.60
2018-06-05T02:33:50.738Z,73.57
2018-06-05T02:36:21.264Z,91.13
2018-06-05T02:38:51.502Z,84.60
2018-06-05T02:41:21.745Z,76.57
2018-06-05T02:43:52.074Z,86.27
2018-06-05T02:46:22.529Z,85.03
2018-06-05T02:48:52.717Z,84.13
2018-06-05T02:51:23.107Z,88.50
2018-06-05T02:53:55.495Z,86.83
2018-06-05T02:56:26.449Z,86.00
2018-06-05T02:58:57.436Z,91.07
2018-06-05T03:01:30.048Z,86.13
2018-06-05T03:04:02.282Z,90.17
2018-06-05T03:06:32.916Z,88.57
2018-06-05T03:09:03.578Z,90.63
2018-06-05T03:11:36.115Z,84.63
2018-06-05T03:14:07.050Z,92.27
2018-06-05T03:16:40.205Z,87.77
2018-06-05T03:19:11.216Z,85.37
2018-06-05T03:21:42.778Z,98.10
2018-06-05T03:24:13.833Z,90.43
2018-06-05T03:26:44.266Z,89.73
2018-06-05T03:29:14.495Z,91.77
2018-06-05T03:31:45.422Z,89.63
2018-06-05T03:34:15.579Z,88.30
2018-06-05T03:36:46.060Z,95.00
2018-06-05T03:39:16.323Z,91.63
2018-06-05T03:41:47.199Z,88.93
2018-06-05T03:44:17.751Z,91.73
2018-06-05T03:46:48.484Z,91.73
2018-06-05T03:49:19.336Z,94.87
2018-06-05T03:51:49.870Z,93.83
2018-06-05T03:54:20.335Z,93.20
2018-06-05T03:56:52.870Z,103.67
2018-06-05T03:59:28.029Z,100.83
2018-06-05T04:01:58.613Z,101.93
2018-06-05T04:04:30.743Z,97.60
2018-06-05T04:07:01.987Z,106.20
2018-06-05T04:09:33.128Z,100.13
2018-06-05T04:12:03.466Z,102.47
2018-06-05T04:14:34.169Z,112.33
2018-06-05T04:17:05.034Z,109.27
2018-06-05T04:19:35.090Z,111.37
2018-06-05T04:22:08.029Z,111.33
2018-06-05T04:24:39.216Z,131.00
2018-06-05T04:27:10.882Z,122.57
2018-06-05T04:29:41.523Z,108.97
2018-06-05T04:32:13.058Z,109.97
2018-06-05T04:34:43.821Z,105.30
2018-06-05T04:37:16.801Z,112.80
2018-06-05T04:39:48.932Z,108.43
2018-06-05T04:42:19.889Z,105.50
2018-06-05T04:44:50.137Z,107.53
2018-06-05T04:47:20.772Z,113.63
2018-06-05T04:49:51.299Z,105.70
2018-06-05T04:52:52.385Z,109.37
2018-06-05T04:55:26.162Z,110.67
2018-06-05T04:57:57.072Z,105.27
2018-06-05T05:00:27.395Z,116.73
2018-06-05T05:02:58.088Z,112.23
2018-06-05T05:05:28.448Z,107.87
2018-06-05T05:07:58.493Z,117.20
2018-06-05T05:10:29.316Z,116.70
2018-06-05T05:13:01.692Z,113.10
2018-06-05T05:15:34.453Z,132.40
2018-06-05T05:18:05.726Z,114.87
2018-06-05T05:20:37.005Z,123.97
2018-06-05T05:23:09.202Z,127.63
2018-06-05T05:25:39.422Z,119.43
2018-06-05T05:28:11.360Z,114.00
2018-06-05T05:30:41.592Z,111.67
2018-06-05T05:33:11.627Z,111.43
2018-06-05T05:35:41.791Z,116.90
2018-06-05T05:38:12.761Z,115.07
2018-06-05T05:40:43.170Z,109.80
2018-06-05T05:43:13.687Z,107.33
2018-06-05T05:45:44.262Z,112.47
2018-06-05T05:48:14.603Z,101.23
2018-06-05T05:50:44.975Z,115.70
2018-06-05T05:53:15.802Z,117.77
2018-06-05T05:55:54.148Z,110.13
2018-06-05T05:58:30.795Z,108.90
2018-06-05T06:01:02.647Z,103.53
2018-06-05T06:03:34.914Z,105.83
2018-06-05T06:06:05.852Z,106.47
2018-06-05T06:08:37.679Z,109.87
2018-06-05T06:11:08.212Z,100.80
2018-06-05T06:13:39.623Z,110.30
2018-06-05T06:16:14.422Z,116.23
2018-06-05T06:18:49.334Z,114.73
2018-06-05T06:21:26.740Z,125.20
2018-06-05T06:23:58.538Z,124.53
2018-06-05T06:26:29.273Z,111.60
2018-06-05T06:29:00.275Z,119.80
2018-06-05T06:31:38.388Z,123.37
2018-06-05T06:34:09.447Z,121.47
2018-06-05T06:36:43.432Z,111.23
2018-06-05T06:39:21.333Z,109.07
2018-06-05T06:42:02.051Z,106.30
2018-06-05T06:44:33.278Z,108.83
2018-06-05T06:47:05.493Z,110.20
2018-06-05T06:49:37.568Z,107.03
2018-06-05T06:52:47.782Z,105.60
2018-06-05T06:55:17.977Z,104.70
2018-06-05T06:57:48.595Z,88.77
2018-06-05T07:00:20.691Z,84.47
2018-06-05T07:02:52.509Z,99.03
2018-06-05T07:05:24.541Z,99.30
2018-06-05T07:07:56.373Z,85.13
2018-06-05T07:10:27.363Z,89.50
2018-06-05T07:12:58.956Z,94.93
2018-06-05T07:15:29.777Z,92.27
2018-06-05T07:18:02.553Z,90.70
2018-06-05T07:20:34.091Z,97.77
2018-06-05T07:23:04.541Z,103.80
2018-06-05T07:25:34.953Z,97.97
2018-06-05T07:28:12.911Z,113.60
2018-06-05T07:30:47.573Z,111.33
2018-06-05T07:33:18.408Z,112.17
2018-06-05T07:35:48.759Z,123.80
2018-06-05T07:38:20.008Z,111.60
2018-06-05T07:40:51.928Z,119.93
2018-06-05T07:43:26.464Z,122.23
2018-06-05T07:45:59.430Z,107.52
2018-06-05T07:48:31.013Z,119.27
2018-06-05T07:51:01.721Z,111.00
2018-06-05T07:53:32.013Z,104.77
2018-06-05T07:56:03.095Z,101.93
2018-06-05T07:58:33.594Z,98.77
2018-06-05T08:01:04.036Z,101.97
2018-06-05T08:03:34.577Z,98.03
2018-06-05T08:06:05.799Z,104.63
2018-06-05T08:08:45.104Z,106.93
2018-06-05T08:11:17.756Z,113.73
2018-06-05T08:13:49.415Z,103.50
2018-06-05T08:16:20.102Z,103.00
2018-06-05T08:18:50.477Z,92.20
2018-06-05T08:21:20.750Z,98.10
2018-06-05T08:23:53.542Z,94.47
2018-06-05T08:26:24.478Z,93.63
2018-06-05T08:28:57.076Z,86.77
2018-06-05T08:31:31.434Z,88.10
2018-06-05T08:34:02.190Z,87.93
2018-06-05T08:36:33.327Z,80.87
2018-06-05T08:39:05.214Z,83.07
2018-06-05T08:41:35.659Z,77.70
2018-06-05T08:44:07.588Z,77.10
2018-06-05T08:46:41.483Z,77.80
2018-06-05T08:49:12.043Z,81.67
2018-06-05T08:51:46.262Z,74.17
2018-06-05T08:54:19.161Z,67.23
2018-06-05T08:56:53.761Z,71.23
2018-06-05T08:59:26.544Z,61.47
2018-06-05T09:02:02.517Z,73.20
2018-06-05T09:04:33.648Z,74.40
2018-06-05T09:07:04.883Z,66.63
2018-06-05T09:09:39.194Z,69.87
2018-06-05T09:12:12.349Z,64.33
2018-06-05T09:14:43.662Z,67.43
2018-06-05T09:17:14.760Z,71.90
2018-06-05T09:19:45.105Z,60.23
2018-06-05T09:22:16.493Z,71.00
2018-06-05T09:24:46.547Z,66.80
2018-06-05T09:27:17.323Z,68.87
2018-06-05T09:29:52.381Z,65.17
2018-06-05T09:32:27.294Z,69.17
2018-06-05T09:35:00.975Z,60.97
2018-06-05T09:37:33.590Z,62.33
2018-06-05T09:40:08.035Z,57.60
2018-06-05T09:42:40.420Z,56.70
2018-06-05T09:45:12.710Z,50.20
2018-06-05T09:47:44.188Z,52.47
2018-06-05T09:50:16.729Z,51.40
2018-06-05T09:52:50.063Z,53.83
2018-06-05T09:55:20.938Z,51.33
2018-06-05T09:57:55.181Z,54.13
2018-06-05T10:00:31.877Z,59.43
2018-06-05T10:03:05.254Z,55.17
2018-06-05T10:05:37.166Z,52.57
2018-06-05T10:08:10.326Z,49.80
2018-06-05T10:10:41.483Z,50.47
2018-06-05T10:13:14.342Z,50.27
2018-06-05T10:15:48.140Z,43.77
2018-06-05T10:18:23.061Z,48.50
2018-06-05T10:20:56.500Z,52.10
2018-06-05T10:23:28.588Z,53.47
2018-06-05T10:26:00.642Z,47.93
2018-06-05T10:28:36.393Z,48.03
2018-06-05T10:31:07.657Z,47.93
2018-06-05T10:33:39.504Z,40.80
2018-06-05T10:36:12.489Z,49.57
2018-06-05T10:38:44.291Z,48.77
2018-06-05T10:41:15.637Z,44.30
2018-06-05T10:43:46.681Z,49.13
2018-06-05T10:46:23.054Z,49.80
2018-06-05T10:49:00.327Z,44.90
2018-06-05T10:51:39.557Z,47.93
2018-06-05T10:54:10.199Z,48.40
2018-06-05T10:56:44.445Z,42.07
2018-06-05T10:59:16.983Z,43.70
2018-06-05T11:01:48.680Z,45.23
2018-06-05T11:04:22.837Z,40.90
2018-06-05T11:06:56.490Z,47.67
2018-06-05T11:09:27.027Z,45.90
2018-06-05T11:11:57.771Z,46.90
2018-06-05T11:14:31.774Z,48.83
2018-06-05T11:17:02.046Z,47.07
2018-06-05T11:19:32.842Z,49.30
2018-06-05T11:22:08.863Z,41.77
2018-06-05T11:24:41.548Z,43.50
2018-06-05T11:27:12.143Z,37.70
2018-06-05T11:29:45.083Z,42.83
2018-06-05T11:32:18.178Z,42.30
2018-06-05T11:34:50.460Z,41.90
2018-06-05T11:37:27.733Z,43.17
2018-06-05T11:39:58.944Z,40.80
2018-06-05T11:42:34.225Z,41.50
2018-06-05T11:45:07.006Z,35.57
2018-06-05T11:47:40.510Z,42.57
2018-06-05T11:50:12.574Z,47.63
2018-06-05T11:52:45.219Z,38.33
2018-06-05T11:55:25.337Z,42.37
2018-06-05T11:57:58.438Z,43.73
2018-06-05T12:00:44.212Z,41.00
2018-06-05T12:03:32.250Z,34.93
2018-06-05T12:06:09.261Z,39.13
2018-06-05T12:08:42.014Z,38.97
2018-06-05T12:11:14.727Z,45.63
2018-06-05T12:13:49.689Z,39.53
2018-06-05T12:16:23.577Z,41.57
2018-06-05T12:19:22.632Z,42.63
2018-06-05T12:21:53.622Z,44.37
2018-06-05T12:24:26.226Z,44.57
2018-06-05T12:26:58.327Z,42.17
2018-06-05T12:29:35.503Z,45.50
2018-06-05T12:32:07.682Z,45.00
2018-06-05T12:34:43.830Z,44.03
2018-06-05T12:37:28.619Z,43.73
2018-06-05T12:40:00.127Z,43.40
2018-06-05T12:42:32.499Z,45.03
2018-06-05T12:45:03.851Z,39.60
2018-06-05T12:47:38.357Z,42.27
2018-06-05T12:50:14.135Z,41.50
2018-06-05T12:52:48.386Z,37.87
2018-06-05T12:55:22.549Z,42.27
2018-06-05T12:58:02.949Z,47.53
2018-06-05T13:00:41.854Z,43.03
2018-06-05T13:03:21.973Z,42.93
2018-06-05T13:05:56.648Z,48.07
2018-06-05T13:08:29.946Z,41.97
2018-06-05T13:11:11.102Z,42.43
2018-06-05T13:13:43.512Z,47.13
2018-06-05T13:16:20.672Z,44.87
2018-06-05T13:18:53.160Z,46.83
2018-06-05T13:21:26.159Z,48.37
2018-06-05T13:24:05.862Z,44.10
2018-06-05T13:26:39.710Z,47.37
2018-06-05T13:29:12.463Z,39.07
2018-06-05T13:31:47.777Z,48.83
2018-06-05T13:34:21.858Z,47.30
2018-06-05T13:36:54.505Z,48.60
2018-06-05T13:39:27.721Z,50.93
2018-06-05T13:41:59.338Z,50.13
2018-06-05T13:44:30.256Z,50.23
2018-06-05T13:47:02.552Z,47.97
2018-06-05T13:49:33.090Z,45.67
2018-06-05T13:52:03.078Z,45.87
2018-06-05T13:54:36.878Z,45.53
2018-06-05T13:57:07.577Z,48.17
2018-06-05T13:59:40.829Z,50.30
2018-06-05T14:02:17.963Z,52.13
2018-06-05T14:04:52.744Z,50.17
2018-06-05T14:07:23.848Z,45.73
2018-06-05T14:09:54.815Z,45.20
2018-06-05T14:12:26.636Z,45.50
2018-06-05T14:14:58.547Z,50.30
2018-06-05T14:17:31.685Z,46.17
2018-06-05T14:20:04.028Z,51.27
2018-06-05T14:22:37.038Z,43.83
2018-06-05T14:25:10.068Z,47.73
2018-06-05T14:27:44.359Z,46.37
2018-06-05T14:30:20.327Z,48.43
2018-06-05T14:32:52.973Z,50.23
2018-06-05T14:35:24.902Z,47.53
2018-06-05T14:37:55.898Z,47.07
2018-06-05T14:40:27.933Z,45.97
2018-06-05T14:43:01.797Z,50.27
2018-06-05T14:45:33.455Z,47.23
2018-06-05T14:49:09.328Z,49.13
2018-06-05T14:51:41.420Z,45.23
2018-06-05T14:54:13.825Z,51.10
2018-06-05T14:56:46.599Z,53.30
2018-06-05T14:59:20.052Z,55.37
2018-06-05T15:01:55.975Z,49.17
2018-06-05T15:04:28.728Z,47.00
2018-06-05T15:07:04.937Z,56.63
2018-06-05T15:09:35.732Z,50.30
2018-06-05T15:12:24.823Z,51.90
2018-06-05T15:14:57.347Z,53.00
2018-06-05T15:17:28.594Z,50.30
2018-06-05T15:20:03.529Z,57.30
2018-06-05T15:22:35.165Z,57.47
2018-06-05T15:25:07.584Z,50.83
2018-06-05T15:27:38.507Z,49.67
2018-06-05T15:30:09.071Z,49.30
2018-06-05T15:32:40.082Z,49.53
2018-06-05T15:35:11.303Z,53.93
2018-06-05T15:37:44.285Z,59.43
2018-06-05T15:40:17.041Z,57.53
2018-06-05T15:42:52.483Z,57.57
2018-06-05T15:45:25.053Z,59.67
2018-06-05T15:47:55.298Z,57.57
2018-06-05T15:50:28.701Z,57.17
2018-06-05T15:53:02.575Z,52.83
2018-06-05T15:55:32.997Z,58.23
2018-06-05T15:58:08.113Z,62.70
2018-06-05T16:00:43.400Z,66.70
2018-06-05T16:03:17.153Z,63.10
2018-06-05T16:05:52.594Z,63.73
2018-06-05T16:08:23.627Z,55.90
2018-06-05T16:10:55.580Z,63.37
2018-06-05T16:13:26.753Z,65.43
2018-06-05T16:16:00.339Z,61.03
2018-06-05T16:18:31.450Z,63.83
2018-06-05T16:21:03.492Z,62.77
2018-06-05T16:23:35.041Z,60.80
2018-06-05T16:26:07.693Z,59.70
2018-06-05T16:28:39.648Z,54.60
2018-06-05T16:31:11.062Z,60.27
2018-06-05T16:33:41.461Z,60.27
2018-06-05T16:36:13.397Z,59.60
2018-06-05T16:38:45.043Z,60.27
2018-06-05T16:41:15.641Z,61.27
2018-06-05T16:43:49.615Z,61.93
2018-06-05T16:51:30.378Z,58.13
2018-06-05T16:54:05.537Z,55.70
2018-06-05T16:56:37.585Z,55.43
2018-06-05T16:59:08.846Z,59.73
2018-06-05T17:01:41.393Z,57.67
2018-06-05T17:04:14.602Z,56.10
2018-06-05T17:06:45.973Z,56.67
2018-06-05T17:09:16.988Z,53.30
2018-06-05T17:11:48.302Z,54.73
2018-06-05T17:14:21.501Z,56.63
2018-06-05T17:16:52.372Z,56.57
2018-06-05T17:19:26.144Z,58.57
2018-06-05T17:21:58.538Z,56.60
2018-06-05T17:24:29.432Z,57.47
2018-06-05T17:27:01.371Z,55.30
2018-06-05T17:29:39.317Z,52.03
2018-06-05T17:32:14.532Z,65.97
2018-06-05T17:34:46.021Z,57.80
2018-06-05T17:37:18.688Z,57.73
2018-06-05T17:39:52.540Z,54.73
2018-06-05T17:42:27.548Z,55.80
2018-06-05T17:45:00.973Z,54.10
2018-06-05T17:47:31.918Z,57.80
2018-06-05T17:50:06.314Z,59.47
2018-06-05T17:52:37.062Z,62.93
2018-06-05T17:55:09.076Z,54.97
2018-06-05T17:57:41.743Z,57.70
2018-06-05T18:00:13.944Z,54.93
2018-06-05T18:02:49.322Z,53.53
2018-06-05T18:05:22.810Z,54.90
2018-06-05T18:07:56.813Z,61.93
2018-06-05T18:10:29.642Z,56.97
2018-06-05T18:13:07.624Z,55.87
2018-06-05T18:15:42.322Z,54.73
2018-06-05T18:18:13.812Z,60.33
2018-06-05T18:20:44.095Z,54.00
2018-06-05T18:23:16.572Z,54.97
2018-06-05T18:26:01.809Z,52.73
2018-06-05T18:28:35.935Z,60.43
2018-06-05T18:31:09.530Z,57.77
2018-06-05T18:33:43.329Z,57.20
2018-06-05T18:36:18.450Z,59.43
2018-06-05T18:38:53.268Z,59.23
2018-06-05T18:41:25.724Z,59.30
2018-06-05T18:44:03.377Z,61.40
2018-06-05T18:46:40.095Z,55.37
2018-06-05T18:49:14.142Z,59.23
2018-06-05T18:51:47.150Z,55.77
2018-06-05T18:54:22.295Z,54.47
2018-06-05T18:59:34.011Z,55.47
2018-06-05T19:02:09.792Z,53.43
2018-06-05T19:04:47.271Z,55.33
2018-06-05T19:07:21.484Z,54.07
2018-06-05T19:09:53.425Z,60.57
2018-06-05T19:12:24.455Z,57.30
2018-06-05T19:14:55.514Z,55.90
2018-06-05T19:17:28.853Z,56.47
2018-06-05T19:20:04.128Z,57.10
2018-06-05T19:22:42.411Z,56.23
2018-06-05T19:25:16.128Z,56.70
2018-06-05T19:27:51.287Z,59.37
2018-06-05T19:30:30.740Z,61.27
2018-06-05T19:33:06.809Z,57.07
2018-06-05T19:35:41.226Z,54.90
2018-06-05T19:38:12.853Z,58.53
2018-06-05T19:43:34.807Z,60.47
2018-06-05T19:46:09.952Z,57.37
2018-06-05T19:48:45.635Z,51.80
2018-06-05T19:51:24.826Z,59.73
2018-06-05T19:54:04.195Z,52.73
2018-06-05T19:56:40.371Z,53.80
2018-06-05T19:59:13.814Z,57.30
2018-06-05T20:01:45.417Z,55.33
2018-06-05T20:04:18.930Z,57.00
2018-06-05T20:06:54.592Z,56.27
2018-06-05T20:09:35.031Z,53.13
2018-06-05T20:12:12.019Z,55.80
2018-06-05T20:14:47.751Z,51.03
2018-06-05T20:17:20.643Z,55.60
2018-06-05T20:19:59.965Z,54.63
2018-06-05T20:22:32.918Z,55.77
2018-06-05T20:25:16.048Z,52.93
2018-06-05T20:27:49.827Z,55.83
2018-06-05T20:30:47.173Z,53.13
2018-06-05T20:33:25.387Z,51.10
2018-06-05T20:35:58.688Z,53.67
2018-06-05T20:38:32.867Z,51.40
2018-06-05T20:41:05.397Z,54.27
2018-06-05T20:43:40.037Z,56.33
2018-06-05T20:46:15.031Z,54.80
2018-06-05T20:49:02.048Z,53.90
2018-06-05T20:51:35.025Z,51.40
2018-06-05T20:54:08.939Z,54.53
2018-06-05T20:56:40.857Z,56.27
2018-06-05T20:59:18.011Z,55.47
2018-06-05T21:01:52.787Z,54.90
2018-06-05T21:04:29.505Z,52.30
2018-06-05T21:07:02.370Z,53.33
2018-06-05T21:09:35.057Z,51.77
2018-06-05T21:12:08.191Z,57.67
2018-06-05T21:14:41.623Z,52.60
2018-06-05T21:17:14.756Z,54.67
2018-06-05T21:19:49.559Z,51.83
2018-06-05T21:22:21.570Z,51.23
2018-06-05T21:24:54.461Z,54.87
2018-06-05T21:27:28.438Z,49.13
2018-06-05T21:30:01.494Z,50.77
2018-06-05T21:32:35.112Z,48.40
2018-06-05T21:35:13.255Z,48.17
2018-06-05T21:37:45.347Z,53.10
2018-06-05T21:40:19.764Z,50.17
2018-06-05T21:42:51.245Z,50.57
2018-06-05T21:45:33.460Z,49.83
2018-06-05T21:48:05.094Z,51.90
2018-06-05T21:50:36.084Z,48.57
2018-06-05T21:53:07.706Z,49.37
2018-06-05T21:55:38.106Z,51.70
2018-06-05T21:58:11.344Z,46.73
2018-06-05T22:00:42.940Z,53.17
2018-06-05T22:03:14.699Z,52.70
2018-06-05T22:05:49.768Z,55.07
2018-06-05T22:08:26.272Z,52.60
2018-06-05T22:10:56.994Z,47.63
2018-06-05T22:13:28.958Z,50.83
2018-06-05T22:16:01.522Z,49.10
2018-06-05T22:18:39.801Z,49.33
2018-06-05T22:21:13.355Z,51.87
